MSC Rania — 3EEB3 — position and weather

sailwx.info

Track history (hours):
 
Tides and Currents Weather Stations Pressure Air Temp Water Temp Dewpoint Dewpoint Depression Visibility Wind Speed Wind Dir Waves Ship Positions

MSC Rania

Last reported at 2015-Mar-29 04:11 UTC. Time now 2015-Mar-29 07:23 UTC.
Position N 37°48' E 009°07'.

Length 332 m; draft 13.1 m.

Type: Ship (hazmat cat A). MMSI: 371752000.

Date/timePositionNaut miles runAvg speedWind from/ knotsBaromVisibWave heightAir tempDewpointWater temp
2015-Mar-29 04:11N 37°48' E 009°07'1219.1
2015-Mar-29 03:33N 37°46' E 009°22'1919.5
2015-Mar-29 02:33N 37°42' E 009°46'1919.1
2015-Mar-29 01:32N 37°39' E 010°11'1918.5
2015-Mar-29 00:30N 37°36' E 010°35'14219.7
2015-Mar-28 17:19N 36°47' E 013°21'1520.2
2015-Mar-28 16:34N 36°42' E 013°39'2020.1
2015-Mar-28 15:33N 36°36' E 014°03'2020.3
2015-Mar-28 14:34N 36°31' E 014°28'78020.0
2015-Mar-26 23:33N 32°29' E 029°28'6120.5
2015-Mar-26 20:34N 32°17' E 030°39'2019.8
2015-Mar-26 19:32N 32°12' E 031°03'2020.3
2015-Mar-26 18:34N 32°07' E 031°25'8 5.8
2015-Mar-26 17:07N 32°06' E 031°35'1 0.7
2015-Mar-26 15:13N 32°06' E 031°36'1 0.6
2015-Mar-26 14:10N 32°07' E 031°37'1 0.6
2015-Mar-26 13:13N 32°07' E 031°37'0 0.3
2015-Mar-26 12:31N 32°07' E 031°37'8 7.8
2015-Mar-26 11:33N 32°00' E 031°41'12211.1
2015-Mar-26 00:29N 30°07' E 032°34'  
Track history (hours):
 
Tides and Currents Weather Stations Pressure Air Temp Water Temp Dewpoint Dewpoint Depression Visibility Wind Speed Wind Dir Waves Ship Positions

MSC Rania

Last reported at 2015-Mar-29 04:11 UTC. Time now 2015-Mar-29 07:23 UTC.
Position N 37°48' E 009°07'.

Length 332 m; draft 13.1 m.

Type: Ship (hazmat cat A). MMSI: 371752000.

Date/timePositionNaut miles runAvg speedWind from/ knotsBaromVisibWave heightAir tempDewpointWater temp
2015-Mar-29 04:11N 37°48' E 009°07'1219.1
2015-Mar-29 03:33N 37°46' E 009°22'1919.5
2015-Mar-29 02:33N 37°42' E 009°46'1919.1
2015-Mar-29 01:32N 37°39' E 010°11'1918.5
2015-Mar-29 00:30N 37°36' E 010°35'14219.7
2015-Mar-28 17:19N 36°47' E 013°21'1520.2
2015-Mar-28 16:34N 36°42' E 013°39'2020.1
2015-Mar-28 15:33N 36°36' E 014°03'2020.3
2015-Mar-28 14:34N 36°31' E 014°28'78020.0
2015-Mar-26 23:33N 32°29' E 029°28'6120.5
2015-Mar-26 20:34N 32°17' E 030°39'2019.8
2015-Mar-26 19:32N 32°12' E 031°03'2020.3
2015-Mar-26 18:34N 32°07' E 031°25'8 5.8
2015-Mar-26 17:07N 32°06' E 031°35'1 0.7
2015-Mar-26 15:13N 32°06' E 031°36'1 0.6
2015-Mar-26 14:10N 32°07' E 031°37'1 0.6
2015-Mar-26 13:13N 32°07' E 031°37'0 0.3
2015-Mar-26 12:31N 32°07' E 031°37'8 7.8
2015-Mar-26 11:33N 32°00' E 031°41'12211.1
2015-Mar-26 00:29N 30°07' E 032°34'  

Dump ship's entire track history